createdAt,value
2016-10-14T00:00:16.973Z,19.13
2016-10-14T00:01:17.587Z,19.15
2016-10-14T00:02:17.570Z,19.24
2016-10-14T00:03:17.565Z,19.16
2016-10-14T00:04:17.540Z,19.17
2016-10-14T00:05:17.527Z,19.1
2016-10-14T00:06:17.502Z,19.1
2016-10-14T00:07:17.491Z,19.12
2016-10-14T00:08:17.479Z,19.09
2016-10-14T00:09:17.461Z,19.07
2016-10-14T00:10:17.446Z,19.12
2016-10-14T00:11:17.430Z,19.13
2016-10-14T00:12:16.787Z,19.07
2016-10-14T00:13:17.383Z,19.13
2016-10-14T00:14:17.382Z,19.15
2016-10-14T00:15:17.035Z,19.17
2016-10-14T00:16:17.336Z,19.13
2016-10-14T00:17:17.009Z,19.15
2016-10-14T00:18:16.992Z,19.17
2016-10-14T00:19:17.045Z,19.15
2016-10-14T00:20:16.955Z,19.13
2016-10-14T00:21:16.942Z,19.13
2016-10-14T00:22:17.243Z,19.17
2016-10-14T00:23:17.226Z,19.2
2016-10-14T00:24:16.898Z,19.17
2016-10-14T00:25:17.207Z,19.09
2016-10-14T00:26:17.180Z,19.12
2016-10-14T00:27:17.151Z,19.2
2016-10-14T00:28:17.142Z,19.12
2016-10-14T00:29:16.810Z,19.15
2016-10-14T00:30:17.115Z,19.15
2016-10-14T00:31:17.091Z,19.16
2016-10-14T00:32:17.083Z,19.09
2016-10-14T00:33:17.053Z,19.15
2016-10-14T00:34:17.038Z,19.15
2016-10-14T00:35:17.019Z,19.17
2016-10-14T00:36:17.002Z,19.12
2016-10-14T00:37:16.358Z,19.16
2016-10-14T00:38:16.977Z,19.09
2016-10-14T00:39:16.952Z,19.13
2016-10-14T00:40:16.935Z,19.16
2016-10-14T00:41:16.923Z,19.12
2016-10-14T00:42:16.913Z,19.15
2016-10-14T00:43:16.883Z,19.12
2016-10-14T00:44:16.886Z,19.12
2016-10-14T00:45:16.539Z,19.1
2016-10-14T00:46:16.838Z,19.1
2016-10-14T00:47:16.814Z,19.12
2016-10-14T00:48:16.804Z,19.09
2016-10-14T00:49:16.789Z,19.13
2016-10-14T00:50:16.454Z,19.13
2016-10-14T00:51:16.754Z,19.09
2016-10-14T00:52:16.733Z,19.16
2016-10-14T00:53:16.722Z,19.09
2016-10-14T00:54:16.707Z,19.1
2016-10-14T00:55:16.699Z,19.06
2016-10-14T00:56:16.670Z,19.15
2016-10-14T00:57:16.339Z,19.02
2016-10-14T00:58:16.639Z,19.12
2016-10-14T00:59:16.302Z,19.12
2016-10-14T01:00:16.605Z,19.1
2016-10-14T01:01:16.586Z,19.1
2016-10-14T01:02:16.255Z,19.07
2016-10-14T01:03:16.555Z,19.1
2016-10-14T01:04:15.910Z,19.09
2016-10-14T01:05:16.513Z,19.09
2016-10-14T01:06:16.512Z,19.06
2016-10-14T01:07:16.485Z,19.07
2016-10-14T01:08:16.463Z,19.07
2016-10-14T01:09:16.452Z,19.09
2016-10-14T01:10:16.437Z,19.01
2016-10-14T01:11:16.417Z,19.13
2016-10-14T01:12:16.090Z,19.07
2016-10-14T01:13:16.375Z,19.1
2016-10-14T01:14:16.371Z,18.99
2016-10-14T01:15:16.357Z,19.01
2016-10-14T01:16:16.339Z,19.02
2016-10-14T01:17:16.319Z,19.01
2016-10-14T01:18:15.987Z,18.96
2016-10-14T01:19:15.970Z,18.97
2016-10-14T01:20:15.950Z,18.94
2016-10-14T01:21:16.250Z,18.97
2016-10-14T01:22:16.241Z,18.99
2016-10-14T01:23:16.219Z,18.96
2016-10-14T01:24:16.202Z,18.96
2016-10-14T01:25:15.873Z,18.94
2016-10-14T01:26:16.169Z,19.01
2016-10-14T01:27:16.142Z,18.99
2016-10-14T01:28:15.825Z,18.97
2016-10-14T01:29:16.121Z,18.94
2016-10-14T01:30:16.094Z,18.96
2016-10-14T01:31:16.081Z,18.96
2016-10-14T01:32:16.060Z,19.02
2016-10-14T01:33:16.045Z,19.02
2016-10-14T01:34:16.033Z,18.93
2016-10-14T01:35:16.014Z,18.99
2016-10-14T01:36:15.991Z,19.05
2016-10-14T01:37:15.665Z,19.01
2016-10-14T01:38:15.969Z,19.01
2016-10-14T01:39:15.947Z,18.97
2016-10-14T01:40:15.935Z,18.94
2016-10-14T01:41:15.921Z,18.96
2016-10-14T01:42:15.584Z,19.01
2016-10-14T01:43:15.886Z,18.93
2016-10-14T01:44:15.857Z,19.02
2016-10-14T01:45:15.530Z,18.91
2016-10-14T01:46:15.823Z,18.97
2016-10-14T01:47:15.811Z,18.96
2016-10-14T01:48:15.802Z,18.99
2016-10-14T01:49:15.785Z,19.02
2016-10-14T01:50:15.764Z,18.96
2016-10-14T01:51:15.741Z,18.94
2016-10-14T01:52:15.730Z,18.91
2016-10-14T01:53:15.712Z,19.01
2016-10-14T01:54:15.377Z,18.99
2016-10-14T01:55:15.363Z,18.99
2016-10-14T01:56:15.370Z,18.96
2016-10-14T01:57:15.647Z,18.97
2016-10-14T01:58:15.628Z,18.94
2016-10-14T01:59:15.612Z,18.94
2016-10-14T02:00:14.963Z,18.99
2016-10-14T02:01:15.574Z,18.9
2016-10-14T02:02:15.558Z,18.97
2016-10-14T02:03:15.541Z,18.94
2016-10-14T02:04:15.210Z,18.89
2016-10-14T02:05:15.506Z,18.97
2016-10-14T02:06:15.497Z,18.9
2016-10-14T02:07:15.478Z,18.96
2016-10-14T02:08:15.462Z,18.97
2016-10-14T02:09:15.449Z,18.91
2016-10-14T02:10:15.432Z,18.99
2016-10-14T02:11:15.409Z,18.91
2016-10-14T02:12:15.396Z,19.01
2016-10-14T02:13:15.375Z,18.93
2016-10-14T02:14:15.040Z,18.94
2016-10-14T02:15:15.026Z,18.97
2016-10-14T02:16:15.319Z,18.94
2016-10-14T02:17:14.993Z,18.94
2016-10-14T02:18:14.994Z,18.91
2016-10-14T02:19:15.281Z,18.93
2016-10-14T02:20:15.272Z,18.93
2016-10-14T02:21:14.925Z,18.9
2016-10-14T02:22:14.913Z,18.96
2016-10-14T02:23:15.208Z,18.83
2016-10-14T02:24:15.185Z,18.99
2016-10-14T02:25:15.172Z,19.02
2016-10-14T02:26:15.159Z,18.94
2016-10-14T02:27:15.151Z,18.89
2016-10-14T02:28:14.808Z,18.87
2016-10-14T02:29:15.109Z,18.96
2016-10-14T02:30:15.091Z,18.96
2016-10-14T02:31:15.068Z,18.91
2016-10-14T02:32:15.053Z,18.86
2016-10-14T02:33:15.042Z,18.83
2016-10-14T02:34:15.019Z,18.9
2016-10-14T02:35:15.010Z,18.84
2016-10-14T02:36:14.666Z,18.86
2016-10-14T02:37:14.975Z,18.86
2016-10-14T02:38:14.962Z,18.91
2016-10-14T02:39:14.930Z,18.93
2016-10-14T02:40:14.921Z,18.86
2016-10-14T02:41:14.582Z,18.84
2016-10-14T02:42:14.878Z,18.93
2016-10-14T02:43:14.868Z,18.83
2016-10-14T02:44:14.846Z,18.89
2016-10-14T02:45:14.827Z,18.91
2016-10-14T02:46:14.820Z,18.83
2016-10-14T02:47:14.802Z,18.87
2016-10-14T02:48:14.789Z,18.86
2016-10-14T02:49:14.770Z,18.84
2016-10-14T02:50:14.748Z,18.91
2016-10-14T02:51:14.413Z,18.89
2016-10-14T02:52:14.714Z,18.84
2016-10-14T02:53:14.697Z,18.87
2016-10-14T02:54:14.683Z,18.87
2016-10-14T02:55:14.658Z,18.71
2016-10-14T02:56:14.653Z,18.84
2016-10-14T02:57:14.639Z,18.78
2016-10-14T02:58:14.620Z,18.76
2016-10-14T02:59:14.287Z,18.75
2016-10-14T03:00:13.949Z,18.87
2016-10-14T03:01:14.574Z,18.84
2016-10-14T03:02:14.549Z,18.86
2016-10-14T03:03:14.532Z,18.87
2016-10-14T03:04:14.202Z,18.82
2016-10-14T03:05:14.504Z,18.86
2016-10-14T03:06:14.480Z,18.75
2016-10-14T03:07:14.147Z,18.76
2016-10-14T03:08:14.440Z,18.86
2016-10-14T03:09:14.423Z,18.86
2016-10-14T03:10:14.414Z,18.76
2016-10-14T03:11:14.391Z,18.75
2016-10-14T03:12:14.377Z,18.72
2016-10-14T03:13:14.362Z,18.83
2016-10-14T03:14:14.341Z,18.78
2016-10-14T03:15:14.327Z,18.74
2016-10-14T03:16:14.310Z,18.71
2016-10-14T03:17:14.297Z,18.87
2016-10-14T03:18:13.964Z,18.75
2016-10-14T03:19:14.265Z,18.75
2016-10-14T03:20:14.249Z,18.72
2016-10-14T03:21:14.231Z,18.84
2016-10-14T03:22:14.207Z,18.75
2016-10-14T03:23:14.192Z,18.83
2016-10-14T03:24:14.183Z,18.75
2016-10-14T03:25:13.852Z,18.75
2016-10-14T03:26:14.150Z,18.78
2016-10-14T03:27:13.811Z,18.82
2016-10-14T03:28:14.111Z,18.83
2016-10-14T03:29:14.090Z,18.76
2016-10-14T03:30:14.099Z,18.79
2016-10-14T03:31:14.056Z,18.74
2016-10-14T03:32:13.727Z,18.74
2016-10-14T03:33:14.023Z,18.74
2016-10-14T03:34:14.016Z,18.78
2016-10-14T03:35:13.673Z,18.76
2016-10-14T03:36:13.974Z,18.74
2016-10-14T03:37:13.650Z,18.78
2016-10-14T03:38:13.948Z,18.69
2016-10-14T03:39:13.918Z,18.74
2016-10-14T03:40:13.917Z,18.71
2016-10-14T03:41:13.891Z,18.74
2016-10-14T03:42:13.884Z,18.79
2016-10-14T03:43:13.855Z,18.76
2016-10-14T03:44:13.844Z,18.68
2016-10-14T03:45:13.819Z,18.75
2016-10-14T03:46:13.804Z,18.71
2016-10-14T03:47:13.158Z,18.71
2016-10-14T03:48:13.457Z,18.76
2016-10-14T03:49:13.442Z,18.72
2016-10-14T03:50:13.734Z,18.71
2016-10-14T03:51:13.723Z,18.71
2016-10-14T03:52:13.702Z,18.59
2016-10-14T03:53:13.933Z,18.76
2016-10-14T03:54:13.357Z,18.69
2016-10-14T03:55:13.342Z,18.72
2016-10-14T03:56:13.635Z,18.71
2016-10-14T03:57:13.622Z,18.79
2016-10-14T03:58:13.611Z,18.78
2016-10-14T03:59:13.263Z,18.79
2016-10-14T04:00:13.564Z,18.78
2016-10-14T04:01:13.243Z,18.71
2016-10-14T04:02:13.528Z,18.75
2016-10-14T04:03:12.881Z,18.75
2016-10-14T04:04:13.499Z,18.74
2016-10-14T04:05:13.484Z,18.75
2016-10-14T04:06:13.463Z,18.87
2016-10-14T04:07:13.135Z,18.86
2016-10-14T04:08:13.432Z,18.96
2016-10-14T04:09:13.425Z,18.99
2016-10-14T04:10:13.404Z,19.07
2016-10-14T04:11:13.380Z,19.15
2016-10-14T04:12:13.367Z,19.13
2016-10-14T04:13:13.347Z,19.16
2016-10-14T04:14:13.324Z,19.12
2016-10-14T04:15:13.311Z,19.21
2016-10-14T04:16:13.303Z,19.16
2016-10-14T04:17:12.969Z,19.13
2016-10-14T04:18:13.262Z,19.21
2016-10-14T04:19:13.244Z,19.2
2016-10-14T04:20:12.914Z,19.13
2016-10-14T04:21:13.214Z,19.23
2016-10-14T04:22:13.195Z,19.25
2016-10-14T04:23:13.190Z,19.15
2016-10-14T04:24:13.163Z,19.1
2016-10-14T04:25:13.149Z,19.31
2016-10-14T04:26:13.132Z,19.3
2016-10-14T04:27:13.111Z,19.27
2016-10-14T04:28:13.099Z,19.24
2016-10-14T04:29:13.074Z,19.17
2016-10-14T04:30:13.060Z,19.25
2016-10-14T04:31:13.071Z,19.17
2016-10-14T04:32:12.708Z,19.25
2016-10-14T04:33:12.697Z,19.15
2016-10-14T04:34:12.992Z,19.21
2016-10-14T04:35:12.975Z,19.25
2016-10-14T04:36:12.643Z,19.17
2016-10-14T04:37:12.942Z,19.2
2016-10-14T04:38:12.919Z,19.23
2016-10-14T04:39:12.915Z,19.17
2016-10-14T04:40:12.892Z,19.27
2016-10-14T04:41:12.557Z,19.23
2016-10-14T04:42:12.870Z,19.25
2016-10-14T04:43:12.838Z,19.3
2016-10-14T04:44:12.824Z,19.23
2016-10-14T04:45:12.806Z,19.3
2016-10-14T04:46:12.797Z,19.24
2016-10-14T04:47:12.772Z,19.15
2016-10-14T04:48:12.438Z,19.25
2016-10-14T04:49:12.432Z,19.3
2016-10-14T04:50:12.712Z,19.25
2016-10-14T04:51:12.073Z,19.32
2016-10-14T04:52:12.694Z,19.25
2016-10-14T04:53:12.675Z,19.38
2016-10-14T04:54:12.655Z,19.34
2016-10-14T04:55:12.644Z,19.27
2016-10-14T04:56:12.303Z,19.39
2016-10-14T04:57:12.606Z,19.38
2016-10-14T04:58:12.590Z,19.43
2016-10-14T04:59:12.261Z,19.34
2016-10-14T05:00:12.556Z,19.32
2016-10-14T05:01:12.539Z,19.35
2016-10-14T05:02:12.519Z,19.34
2016-10-14T05:03:12.507Z,19.35
2016-10-14T05:04:12.491Z,19.39
2016-10-14T05:05:12.472Z,19.35
2016-10-14T05:06:12.451Z,19.35
2016-10-14T05:07:12.436Z,19.32
2016-10-14T05:08:12.417Z,19.38
2016-10-14T05:09:12.406Z,19.4
2016-10-14T05:10:12.393Z,19.4
2016-10-14T05:11:12.055Z,19.34
2016-10-14T05:12:12.356Z,19.31
2016-10-14T05:13:12.343Z,19.32
2016-10-14T05:14:12.324Z,19.35
2016-10-14T05:15:12.305Z,19.39
2016-10-14T05:16:12.292Z,19.4
2016-10-14T05:17:12.266Z,19.38
2016-10-14T05:18:12.258Z,19.39
2016-10-14T05:19:11.928Z,19.31
2016-10-14T05:20:12.223Z,19.43
2016-10-14T05:21:12.208Z,19.31
2016-10-14T05:22:12.197Z,19.42
2016-10-14T05:23:12.168Z,19.43
2016-10-14T05:24:12.165Z,19.42
2016-10-14T05:25:12.137Z,19.45
2016-10-14T05:26:12.120Z,19.42
2016-10-14T05:27:12.110Z,19.42
2016-10-14T05:28:12.098Z,19.43
2016-10-14T05:29:12.068Z,19.49
2016-10-14T05:30:12.059Z,19.46
2016-10-14T05:31:12.041Z,19.38
2016-10-14T05:32:12.024Z,19.43
2016-10-14T05:33:12.004Z,19.4
2016-10-14T05:34:11.987Z,19.46
2016-10-14T05:35:11.969Z,19.46
2016-10-14T05:36:11.960Z,19.47
2016-10-14T05:37:11.629Z,19.4
2016-10-14T05:38:11.920Z,19.49
2016-10-14T05:39:11.907Z,19.43
2016-10-14T05:40:11.890Z,19.42
2016-10-14T05:41:11.559Z,19.45
2016-10-14T05:42:11.854Z,19.57
2016-10-14T05:43:11.846Z,19.55
2016-10-14T05:44:11.815Z,19.52
2016-10-14T05:45:11.796Z,19.55
2016-10-14T05:46:11.785Z,19.5
2016-10-14T05:47:11.766Z,19.43
2016-10-14T05:48:11.761Z,19.5
2016-10-14T05:49:11.420Z,19.43
2016-10-14T05:50:11.409Z,19.4
2016-10-14T05:51:11.716Z,19.46
2016-10-14T05:52:11.385Z,19.46
2016-10-14T05:53:11.667Z,19.45
2016-10-14T05:54:11.672Z,19.47
2016-10-14T05:55:11.637Z,19.43
2016-10-14T05:56:11.618Z,19.49
2016-10-14T05:57:11.609Z,19.42
2016-10-14T05:58:11.592Z,19.42
2016-10-14T05:59:11.573Z,19.47
2016-10-14T06:00:11.554Z,19.45
2016-10-14T06:01:11.543Z,19.43
2016-10-14T06:02:11.521Z,19.47
2016-10-14T06:03:11.516Z,19.42
2016-10-14T06:04:11.173Z,19.4
2016-10-14T06:05:11.474Z,19.53
2016-10-14T06:06:11.461Z,19.53
2016-10-14T06:07:11.443Z,19.57
2016-10-14T06:08:11.426Z,19.57
2016-10-14T06:09:11.412Z,19.53
2016-10-14T06:10:11.399Z,19.58
2016-10-14T06:11:11.390Z,19.57
2016-10-14T06:12:11.365Z,19.58
2016-10-14T06:13:11.031Z,19.58
2016-10-14T06:14:11.318Z,19.57
2016-10-14T06:15:11.306Z,19.53
2016-10-14T06:16:11.296Z,19.55
2016-10-14T06:17:11.283Z,19.53
2016-10-14T06:18:10.946Z,19.55
2016-10-14T06:19:11.249Z,19.57
2016-10-14T06:20:11.223Z,19.57
2016-10-14T06:21:10.906Z,19.52
2016-10-14T06:22:11.197Z,19.57
2016-10-14T06:23:11.194Z,19.57
2016-10-14T06:24:11.169Z,19.53
2016-10-14T06:25:11.145Z,19.6
2016-10-14T06:26:11.129Z,19.57
2016-10-14T06:27:11.107Z,19.52
2016-10-14T06:28:11.090Z,19.55
2016-10-14T06:29:11.081Z,19.5
2016-10-14T06:30:11.061Z,19.52
2016-10-14T06:31:11.043Z,19.6
2016-10-14T06:32:11.024Z,19.6
2016-10-14T06:33:11.015Z,19.53
2016-10-14T06:34:10.991Z,19.53
2016-10-14T06:35:10.979Z,19.55
2016-10-14T06:36:10.963Z,19.55
2016-10-14T06:37:10.952Z,19.52
2016-10-14T06:38:10.930Z,19.53
2016-10-14T06:39:10.918Z,19.55
2016-10-14T06:40:10.898Z,19.55
2016-10-14T06:41:10.877Z,19.62
2016-10-14T06:42:10.882Z,19.58
2016-10-14T06:43:10.851Z,19.64
2016-10-14T06:44:10.832Z,19.6
2016-10-14T06:45:10.817Z,19.61
2016-10-14T06:46:10.801Z,19.68
2016-10-14T06:47:10.783Z,19.61
2016-10-14T06:48:10.761Z,19.64
2016-10-14T06:49:10.760Z,19.61
2016-10-14T06:50:10.737Z,19.64
2016-10-14T06:51:10.716Z,19.58
2016-10-14T06:52:10.692Z,19.61
2016-10-14T06:53:10.367Z,19.55
2016-10-14T06:54:10.668Z,19.57
2016-10-14T06:55:10.661Z,19.62
2016-10-14T06:56:10.628Z,19.6
2016-10-14T06:57:10.615Z,19.58
2016-10-14T06:58:10.614Z,19.53
2016-10-14T06:59:10.598Z,19.6
2016-10-14T07:00:10.595Z,19.6
2016-10-14T07:01:10.584Z,19.57
2016-10-14T07:02:10.537Z,19.57
2016-10-14T07:03:10.516Z,19.57
2016-10-14T07:04:10.499Z,19.58
2016-10-14T07:05:10.488Z,19.61
2016-10-14T07:06:10.467Z,19.61
2016-10-14T07:07:10.449Z,19.64
2016-10-14T07:08:10.435Z,19.62
2016-10-14T07:09:10.419Z,19.61
2016-10-14T07:10:10.401Z,19.61
2016-10-14T07:11:10.391Z,19.62
2016-10-14T07:12:10.367Z,19.57
2016-10-14T07:13:10.369Z,19.58
2016-10-14T07:14:10.343Z,19.6
2016-10-14T07:15:10.317Z,19.62
2016-10-14T07:16:10.303Z,19.61
2016-10-14T07:17:10.290Z,19.67
2016-10-14T07:18:10.269Z,19.65
2016-10-14T07:19:10.252Z,19.58
2016-10-14T07:20:10.243Z,19.6
2016-10-14T07:21:10.225Z,19.64
2016-10-14T07:22:10.208Z,19.58
2016-10-14T07:23:10.194Z,19.65
2016-10-14T07:24:10.174Z,19.58
2016-10-14T07:25:10.155Z,19.64
2016-10-14T07:26:10.146Z,19.58
2016-10-14T07:27:10.115Z,19.61
2016-10-14T07:28:09.789Z,19.58
2016-10-14T07:29:10.088Z,19.58
2016-10-14T07:30:10.083Z,19.58
2016-10-14T07:31:10.056Z,19.64
2016-10-14T07:32:10.038Z,19.61
2016-10-14T07:33:10.021Z,19.58
2016-10-14T07:34:10.009Z,19.64
2016-10-14T07:35:09.991Z,19.62
2016-10-14T07:36:09.987Z,19.65
2016-10-14T07:37:09.958Z,19.6
2016-10-14T07:38:09.947Z,19.71
2016-10-14T07:39:09.614Z,19.6
2016-10-14T07:40:09.911Z,19.6
2016-10-14T07:41:09.893Z,19.6
2016-10-14T07:42:09.880Z,19.61
2016-10-14T07:43:09.867Z,19.58
2016-10-14T07:44:09.836Z,19.6
2016-10-14T07:45:09.820Z,19.64
2016-10-14T07:46:09.501Z,19.6
2016-10-14T07:47:09.786Z,19.64
2016-10-14T07:48:09.773Z,19.64
2016-10-14T07:49:09.767Z,19.67
2016-10-14T07:50:09.434Z,19.68
2016-10-14T07:51:09.741Z,19.68
2016-10-14T07:52:09.391Z,19.67
2016-10-14T07:53:09.711Z,19.71
2016-10-14T07:54:09.673Z,19.68
2016-10-14T07:55:09.660Z,19.71
2016-10-14T07:56:09.645Z,19.71
2016-10-14T07:57:09.618Z,19.7
2016-10-14T07:58:09.622Z,19.68
2016-10-14T07:59:09.593Z,19.58
2016-10-14T08:00:09.578Z,19.65
2016-10-14T08:01:09.561Z,19.57
2016-10-14T08:02:09.538Z,19.64
2016-10-14T08:03:09.526Z,19.62
2016-10-14T08:04:09.503Z,19.62
2016-10-14T08:05:09.491Z,19.62
2016-10-14T08:06:09.479Z,19.6
2016-10-14T08:07:09.466Z,19.62
2016-10-14T08:08:09.446Z,19.71
2016-10-14T08:09:09.433Z,19.7
2016-10-14T08:10:09.416Z,19.67
2016-10-14T08:11:09.411Z,19.64
2016-10-14T08:12:09.385Z,19.64
2016-10-14T08:13:09.364Z,19.65
2016-10-14T08:14:09.364Z,19.6
2016-10-14T08:15:09.342Z,19.68
2016-10-14T08:16:09.313Z,19.65
2016-10-14T08:17:08.978Z,19.62
2016-10-14T08:18:09.281Z,19.67
2016-10-14T08:19:09.260Z,19.58
2016-10-14T08:20:09.250Z,19.58
2016-10-14T08:21:09.230Z,19.58
2016-10-14T08:22:09.218Z,19.57
2016-10-14T08:23:09.197Z,19.57
2016-10-14T08:24:09.180Z,19.61
2016-10-14T08:25:09.168Z,19.53
2016-10-14T08:26:08.833Z,19.64
2016-10-14T08:27:09.129Z,19.67
2016-10-14T08:28:09.119Z,19.58
2016-10-14T08:29:09.100Z,19.61
2016-10-14T08:30:09.112Z,19.67
2016-10-14T08:31:09.070Z,19.62
2016-10-14T08:32:09.052Z,19.6
2016-10-14T08:33:09.035Z,19.7
2016-10-14T08:34:09.017Z,19.64
2016-10-14T08:35:09.002Z,19.76
2016-10-14T08:36:08.980Z,19.71
2016-10-14T08:37:08.976Z,19.82
2016-10-14T08:38:08.951Z,19.82
2016-10-14T08:39:08.630Z,19.83
2016-10-14T08:40:08.926Z,19.85
2016-10-14T08:41:08.897Z,19.82
2016-10-14T08:42:08.885Z,19.8
2016-10-14T08:43:08.560Z,19.83
2016-10-14T08:44:08.849Z,19.8
2016-10-14T08:45:08.829Z,19.78
2016-10-14T08:46:08.817Z,19.71
2016-10-14T08:47:08.800Z,19.78
2016-10-14T08:48:08.779Z,19.76
2016-10-14T08:49:08.776Z,19.7
2016-10-14T08:50:08.761Z,19.82
2016-10-14T08:51:08.739Z,19.75
2016-10-14T08:52:08.720Z,19.8
2016-10-14T08:53:08.715Z,19.71
2016-10-14T08:54:08.692Z,18.68
2016-10-14T08:55:08.354Z,18.21
2016-10-14T08:56:08.660Z,17.83
2016-10-14T08:57:08.315Z,17.58
2016-10-14T08:58:08.631Z,18.02
2016-10-14T08:59:08.602Z,18.39
2016-10-14T09:00:08.592Z,18.64
2016-10-14T09:01:08.251Z,18.91
2016-10-14T09:02:08.556Z,19.15
2016-10-14T09:03:08.223Z,19.21
2016-10-14T09:04:08.522Z,19.28
2016-10-14T09:05:08.524Z,19.34
2016-10-14T09:06:08.487Z,19.4
2016-10-14T09:07:08.483Z,19.45
2016-10-14T09:08:08.451Z,19.55
2016-10-14T09:09:08.444Z,19.6
2016-10-14T09:10:08.418Z,19.62
2016-10-14T09:11:08.407Z,19.61
2016-10-14T09:12:08.390Z,19.6
2016-10-14T09:13:08.372Z,19.61
2016-10-14T09:14:08.362Z,19.7
2016-10-14T09:15:08.346Z,19.67
2016-10-14T09:16:08.323Z,19.71
2016-10-14T09:17:08.308Z,19.7
2016-10-14T09:18:08.290Z,19.75
2016-10-14T09:19:08.279Z,19.72
2016-10-14T09:20:08.251Z,19.7
2016-10-14T09:21:08.237Z,19.64
2016-10-14T09:22:08.222Z,19.67
2016-10-14T09:23:08.210Z,19.71
2016-10-14T09:24:08.195Z,19.67
2016-10-14T09:25:08.176Z,19.68
2016-10-14T09:26:08.160Z,19.71
2016-10-14T09:27:08.151Z,19.71
2016-10-14T09:28:08.138Z,19.71
2016-10-14T09:29:08.154Z,19.65
2016-10-14T09:30:08.082Z,19.65
2016-10-14T09:31:08.076Z,19.62
2016-10-14T09:32:08.078Z,19.71
2016-10-14T09:33:08.045Z,19.72
2016-10-14T09:34:08.030Z,19.62
2016-10-14T09:35:08.013Z,19.6
2016-10-14T09:36:07.995Z,19.67
2016-10-14T09:37:07.972Z,19.7
2016-10-14T09:38:07.954Z,19.64
2016-10-14T09:39:07.937Z,19.67
2016-10-14T09:40:07.935Z,19.68
2016-10-14T09:41:07.908Z,19.68
2016-10-14T09:42:07.891Z,19.76
2016-10-14T09:43:07.868Z,19.65
2016-10-14T09:44:07.856Z,19.71
2016-10-14T09:45:07.842Z,19.68
2016-10-14T09:46:07.822Z,19.78
2016-10-14T09:47:07.802Z,19.68
2016-10-14T09:48:07.793Z,19.67
2016-10-14T09:49:07.782Z,19.7
2016-10-14T09:50:07.755Z,19.7
2016-10-14T09:51:07.745Z,19.68
2016-10-14T09:52:07.730Z,19.67
2016-10-14T09:53:07.706Z,19.75
2016-10-14T09:54:07.690Z,19.72
2016-10-14T09:55:07.676Z,19.67
2016-10-14T09:56:07.658Z,19.68
2016-10-14T09:57:07.643Z,19.82
2016-10-14T09:58:07.626Z,19.68
2016-10-14T09:59:07.619Z,19.8
2016-10-14T10:00:07.587Z,19.71
2016-10-14T10:01:07.574Z,19.76
2016-10-14T10:02:07.553Z,19.76
2016-10-14T10:03:07.559Z,19.68
2016-10-14T10:04:07.529Z,19.68
2016-10-14T10:05:07.195Z,19.65
2016-10-14T10:06:07.496Z,19.65
2016-10-14T10:07:07.477Z,19.72
2016-10-14T10:08:07.464Z,19.71
2016-10-14T10:09:07.446Z,19.75
2016-10-14T10:10:07.425Z,19.64
2016-10-14T10:11:07.418Z,19.64
2016-10-14T10:12:07.392Z,19.75
2016-10-14T10:13:07.377Z,19.71
2016-10-14T10:14:07.360Z,19.68
2016-10-14T10:15:07.347Z,19.62
2016-10-14T10:16:07.331Z,19.65
2016-10-14T10:17:07.311Z,19.71
2016-10-14T10:18:07.295Z,19.68
2016-10-14T10:19:07.278Z,19.65
2016-10-14T10:20:07.267Z,19.71
2016-10-14T10:21:07.243Z,19.71
2016-10-14T10:22:07.226Z,19.64
2016-10-14T10:23:07.221Z,19.65
2016-10-14T10:24:07.201Z,19.75
2016-10-14T10:25:07.186Z,19.65
2016-10-14T10:26:07.159Z,19.68
2016-10-14T10:27:07.148Z,19.68
2016-10-14T10:28:07.128Z,19.71
2016-10-14T10:29:07.105Z,19.68
2016-10-14T10:30:07.094Z,19.71
2016-10-14T10:31:07.087Z,19.71
2016-10-14T10:32:07.068Z,19.71
2016-10-14T10:33:07.052Z,19.75
2016-10-14T10:34:07.032Z,19.68
2016-10-14T10:35:07.014Z,19.71
2016-10-14T10:36:06.682Z,19.76
2016-10-14T10:37:06.997Z,19.72
2016-10-14T10:38:06.965Z,19.72
2016-10-14T10:39:06.953Z,19.72
2016-10-14T10:40:06.930Z,19.71
2016-10-14T10:41:06.608Z,19.76
2016-10-14T10:42:06.586Z,19.65
2016-10-14T10:43:06.881Z,19.75
2016-10-14T10:44:06.883Z,19.7
2016-10-14T10:45:06.848Z,19.76
2016-10-14T10:46:06.848Z,19.75
2016-10-14T10:47:06.815Z,19.78
2016-10-14T10:48:06.802Z,19.72
2016-10-14T10:49:06.788Z,19.71
2016-10-14T10:50:06.774Z,19.68
2016-10-14T10:51:06.752Z,19.71
2016-10-14T10:52:06.735Z,19.72
2016-10-14T10:53:06.716Z,19.71
2016-10-14T10:54:06.702Z,19.76
2016-10-14T10:55:06.689Z,19.78
2016-10-14T10:56:06.664Z,19.68
2016-10-14T10:57:06.648Z,19.71
2016-10-14T10:58:06.635Z,19.75
2016-10-14T10:59:06.612Z,19.72
2016-10-14T11:00:06.289Z,19.79
2016-10-14T11:01:06.590Z,19.78
2016-10-14T11:02:06.566Z,19.71
2016-10-14T11:03:06.549Z,19.71
2016-10-14T11:04:06.542Z,19.7
2016-10-14T11:05:06.524Z,19.7
2016-10-14T11:06:06.496Z,19.7
2016-10-14T11:07:06.500Z,19.71
2016-10-14T11:08:06.467Z,19.7
2016-10-14T11:09:06.458Z,19.72
2016-10-14T11:10:06.442Z,19.75
2016-10-14T11:11:06.423Z,19.68
2016-10-14T11:12:06.406Z,19.67
2016-10-14T11:13:06.399Z,19.76
2016-10-14T11:14:06.052Z,19.87
2016-10-14T11:15:06.352Z,19.85
2016-10-14T11:16:06.335Z,19.83
2016-10-14T11:17:06.320Z,19.82
2016-10-14T11:18:06.312Z,19.75
2016-10-14T11:19:06.291Z,19.64
2016-10-14T11:20:06.277Z,19.67
2016-10-14T11:21:06.263Z,19.49
2016-10-14T11:22:06.255Z,19.53
2016-10-14T11:23:06.223Z,19.57
2016-10-14T11:24:06.214Z,19.62
2016-10-14T11:25:06.200Z,19.6
2016-10-14T11:26:06.175Z,19.67
2016-10-14T11:27:06.159Z,19.71
2016-10-14T11:28:06.144Z,19.68
2016-10-14T11:29:06.121Z,19.83
2016-10-14T11:30:06.120Z,19.78
2016-10-14T11:31:06.087Z,19.75
2016-10-14T11:32:05.759Z,19.78
2016-10-14T11:33:06.069Z,19.76
2016-10-14T11:34:06.045Z,19.82
2016-10-14T11:35:06.026Z,19.8
2016-10-14T11:36:05.696Z,19.85
2016-10-14T11:37:05.683Z,19.79
2016-10-14T11:38:05.978Z,19.86
2016-10-14T11:39:05.645Z,19.87
2016-10-14T11:40:05.626Z,19.89
2016-10-14T11:41:05.932Z,20.01
2016-10-14T11:42:05.905Z,19.97
2016-10-14T11:43:05.910Z,19.98
2016-10-14T11:44:05.883Z,19.89
2016-10-14T11:45:05.859Z,19.85
2016-10-14T11:46:05.856Z,19.83
2016-10-14T11:47:05.833Z,19.83
2016-10-14T11:48:05.813Z,19.79
2016-10-14T11:49:05.804Z,19.78
2016-10-14T11:50:05.777Z,19.76
2016-10-14T11:51:05.762Z,19.78
2016-10-14T11:52:05.739Z,19.71
2016-10-14T11:53:05.788Z,19.8
2016-10-14T11:54:05.720Z,19.72
2016-10-14T11:55:05.727Z,19.75
2016-10-14T11:56:05.681Z,19.78
2016-10-14T11:57:05.663Z,19.72
2016-10-14T11:58:05.650Z,19.71
2016-10-14T11:59:05.636Z,19.71
2016-10-14T12:00:05.295Z,19.71
2016-10-14T12:01:05.605Z,19.67
2016-10-14T12:02:05.582Z,19.67
2016-10-14T12:03:05.571Z,19.75
2016-10-14T12:04:05.554Z,19.64
2016-10-14T12:05:05.217Z,19.64
2016-10-14T12:06:05.509Z,19.64
2016-10-14T12:07:05.502Z,19.71
2016-10-14T12:08:05.491Z,19.71
2016-10-14T12:09:05.459Z,19.67
2016-10-14T12:10:05.444Z,19.7
2016-10-14T12:11:05.435Z,19.68
2016-10-14T12:12:05.414Z,19.72
2016-10-14T12:13:05.403Z,19.7
2016-10-14T12:14:05.384Z,19.67
2016-10-14T12:15:05.368Z,19.64
2016-10-14T12:16:05.347Z,19.67
2016-10-14T12:17:05.335Z,19.67
2016-10-14T12:18:05.314Z,19.67
2016-10-14T12:19:05.303Z,19.7
2016-10-14T12:20:04.969Z,19.72
2016-10-14T12:21:05.271Z,19.71
2016-10-14T12:22:05.241Z,19.78
2016-10-14T12:23:04.922Z,19.8
2016-10-14T12:24:05.211Z,19.75
2016-10-14T12:25:05.198Z,19.79
2016-10-14T12:26:05.183Z,19.78
2016-10-14T12:27:05.163Z,19.79
2016-10-14T12:28:04.836Z,19.79
2016-10-14T12:29:05.135Z,19.83
2016-10-14T12:30:04.796Z,19.79
2016-10-14T12:31:05.100Z,19.86
2016-10-14T12:32:05.423Z,19.79
2016-10-14T12:33:04.758Z,19.82
2016-10-14T12:34:05.068Z,19.78
2016-10-14T12:35:04.727Z,19.83
2016-10-14T12:36:05.014Z,19.82
2016-10-14T12:37:04.681Z,19.79
2016-10-14T12:38:04.980Z,19.79
2016-10-14T12:39:04.967Z,19.85
2016-10-14T12:40:04.952Z,19.79
2016-10-14T12:41:04.937Z,19.86
2016-10-14T12:42:04.919Z,19.79
2016-10-14T12:43:04.908Z,19.7
2016-10-14T12:44:04.891Z,19.83
2016-10-14T12:45:04.880Z,19.76
2016-10-14T12:46:04.848Z,19.76
2016-10-14T12:47:04.847Z,19.76
2016-10-14T12:48:04.822Z,19.75
2016-10-14T12:49:04.805Z,19.79
2016-10-14T12:50:04.787Z,19.82
2016-10-14T12:51:04.770Z,19.78
2016-10-14T12:52:04.757Z,19.75
2016-10-14T12:53:04.746Z,19.78
2016-10-14T12:54:04.723Z,19.79
2016-10-14T12:55:04.714Z,19.71